sensor_id;sensor_type;location;lat;lon;timestamp;P1;durP1;ratioP1;P2;durP2;ratioP2
79377;SDS011;68959;53.132;17.984;2023-06-22T00:00:53;16.50;;;10.80;;
79377;SDS011;68959;53.132;17.984;2023-06-22T00:03:30;14.30;;;10.20;;
79377;SDS011;68959;53.132;17.984;2023-06-22T00:05:57;11.90;;;9.60;;
79377;SDS011;68959;53.132;17.984;2023-06-22T00:08:24;14.40;;;10.90;;
79377;SDS011;68959;53.132;17.984;2023-06-22T00:10:50;14.00;;;11.80;;
79377;SDS011;68959;53.132;17.984;2023-06-22T00:13:17;23.60;;;16.90;;
79377;SDS011;68959;53.132;17.984;2023-06-22T00:15:45;20.80;;;15.70;;
79377;SDS011;68959;53.132;17.984;2023-06-22T00:18:11;23.60;;;18.50;;
79377;SDS011;68959;53.132;17.984;2023-06-22T00:20:41;25.30;;;19.40;;
79377;SDS011;68959;53.132;17.984;2023-06-22T00:23:08;21.60;;;19.30;;
79377;SDS011;68959;53.132;17.984;2023-06-22T00:25:35;20.00;;;16.00;;
79377;SDS011;68959;53.132;17.984;2023-06-22T00:28:03;21.90;;;15.50;;
79377;SDS011;68959;53.132;17.984;2023-06-22T00:30:30;16.20;;;13.40;;
79377;SDS011;68959;53.132;17.984;2023-06-22T00:32:58;17.90;;;13.80;;
79377;SDS011;68959;53.132;17.984;2023-06-22T00:35:25;15.70;;;12.30;;
79377;SDS011;68959;53.132;17.984;2023-06-22T00:37:56;17.00;;;13.40;;
79377;SDS011;68959;53.132;17.984;2023-06-22T00:40:31;15.90;;;13.00;;
79377;SDS011;68959;53.132;17.984;2023-06-22T00:42:59;17.00;;;12.80;;
79377;SDS011;68959;53.132;17.984;2023-06-22T00:45:26;15.60;;;12.80;;
79377;SDS011;68959;53.132;17.984;2023-06-22T00:47:53;14.20;;;12.70;;
79377;SDS011;68959;53.132;17.984;2023-06-22T00:50:22;15.70;;;12.10;;
79377;SDS011;68959;53.132;17.984;2023-06-22T00:52:51;17.20;;;13.00;;
79377;SDS011;68959;53.132;17.984;2023-06-22T00:55:20;16.80;;;11.80;;
79377;SDS011;68959;53.132;17.984;2023-06-22T00:57:48;14.30;;;11.50;;
79377;SDS011;68959;53.132;17.984;2023-06-22T01:00:15;17.60;;;11.60;;
79377;SDS011;68959;53.132;17.984;2023-06-22T01:02:43;16.10;;;11.60;;
79377;SDS011;68959;53.132;17.984;2023-06-22T01:05:19;15.90;;;11.30;;
79377;SDS011;68959;53.132;17.984;2023-06-22T01:10:45;15.70;;;11.40;;
79377;SDS011;68959;53.132;17.984;2023-06-22T01:13:35;19.20;;;11.50;;
79377;SDS011;68959;53.132;17.984;2023-06-22T01:18:44;15.70;;;10.90;;
79377;SDS011;68959;53.132;17.984;2023-06-22T01:21:14;12.50;;;11.10;;
79377;SDS011;68959;53.132;17.984;2023-06-22T01:26:35;13.30;;;10.00;;
79377;SDS011;68959;53.132;17.984;2023-06-22T01:29:10;10.40;;;8.70;;
79377;SDS011;68959;53.132;17.984;2023-06-22T01:31:40;12.80;;;8.60;;
79377;SDS011;68959;53.132;17.984;2023-06-22T01:34:08;10.80;;;9.10;;
79377;SDS011;68959;53.132;17.984;2023-06-22T01:36:37;12.60;;;9.30;;
79377;SDS011;68959;53.132;17.984;2023-06-22T01:39:05;12.60;;;9.30;;
79377;SDS011;68959;53.132;17.984;2023-06-22T01:41:34;11.80;;;9.20;;
79377;SDS011;68959;53.132;17.984;2023-06-22T01:44:06;14.00;;;8.60;;
79377;SDS011;68959;53.132;17.984;2023-06-22T01:46:35;9.70;;;7.70;;
79377;SDS011;68959;53.132;17.984;2023-06-22T01:49:04;9.50;;;7.90;;
79377;SDS011;68959;53.132;17.984;2023-06-22T01:51:32;10.70;;;8.20;;
79377;SDS011;68959;53.132;17.984;2023-06-22T01:54:01;9.90;;;7.90;;
79377;SDS011;68959;53.132;17.984;2023-06-22T01:56:28;10.50;;;7.40;;
79377;SDS011;68959;53.132;17.984;2023-06-22T01:59:09;10.60;;;7.80;;
79377;SDS011;68959;53.132;17.984;2023-06-22T02:01:42;12.90;;;8.10;;
79377;SDS011;68959;53.132;17.984;2023-06-22T02:04:21;10.20;;;7.30;;
79377;SDS011;68959;53.132;17.984;2023-06-22T02:07:02;13.70;;;8.30;;
79377;SDS011;68959;53.132;17.984;2023-06-22T02:09:35;15.50;;;8.70;;
79377;SDS011;68959;53.132;17.984;2023-06-22T02:12:08;11.20;;;7.50;;
79377;SDS011;68959;53.132;17.984;2023-06-22T02:17:05;10.60;;;8.30;;
79377;SDS011;68959;53.132;17.984;2023-06-22T02:19:36;15.60;;;8.30;;
79377;SDS011;68959;53.132;17.984;2023-06-22T02:22:03;12.20;;;8.90;;
79377;SDS011;68959;53.132;17.984;2023-06-22T02:24:31;13.20;;;9.60;;
79377;SDS011;68959;53.132;17.984;2023-06-22T02:26:59;14.80;;;9.30;;
79377;SDS011;68959;53.132;17.984;2023-06-22T02:29:28;13.50;;;8.90;;
79377;SDS011;68959;53.132;17.984;2023-06-22T02:31:55;12.80;;;8.70;;
79377;SDS011;68959;53.132;17.984;2023-06-22T02:34:21;14.40;;;9.00;;
79377;SDS011;68959;53.132;17.984;2023-06-22T02:36:49;13.60;;;8.70;;
79377;SDS011;68959;53.132;17.984;2023-06-22T02:39:22;14.20;;;8.70;;
79377;SDS011;68959;53.132;17.984;2023-06-22T02:41:53;14.40;;;9.40;;
79377;SDS011;68959;53.132;17.984;2023-06-22T02:44:22;14.00;;;8.50;;
79377;SDS011;68959;53.132;17.984;2023-06-22T02:46:49;11.90;;;8.60;;
79377;SDS011;68959;53.132;17.984;2023-06-22T02:49:16;13.90;;;7.60;;
79377;SDS011;68959;53.132;17.984;2023-06-22T02:51:47;8.90;;;6.80;;
79377;SDS011;68959;53.132;17.984;2023-06-22T02:54:15;11.50;;;6.90;;
79377;SDS011;68959;53.132;17.984;2023-06-22T02:56:43;11.20;;;6.40;;
79377;SDS011;68959;53.132;17.984;2023-06-22T02:59:12;9.80;;;6.70;;
79377;SDS011;68959;53.132;17.984;2023-06-22T03:01:39;10.00;;;6.40;;
79377;SDS011;68959;53.132;17.984;2023-06-22T03:04:28;8.70;;;5.60;;
79377;SDS011;68959;53.132;17.984;2023-06-22T03:06:55;9.70;;;5.30;;
79377;SDS011;68959;53.132;17.984;2023-06-22T03:09:21;8.80;;;5.30;;
79377;SDS011;68959;53.132;17.984;2023-06-22T03:11:48;9.60;;;5.60;;
79377;SDS011;68959;53.132;17.984;2023-06-22T03:14:15;7.70;;;5.20;;
79377;SDS011;68959;53.132;17.984;2023-06-22T03:16:42;8.20;;;5.80;;
79377;SDS011;68959;53.132;17.984;2023-06-22T03:19:09;9.90;;;5.50;;
79377;SDS011;68959;53.132;17.984;2023-06-22T03:21:37;15.80;;;6.50;;
79377;SDS011;68959;53.132;17.984;2023-06-22T03:24:05;8.90;;;5.30;;
79377;SDS011;68959;53.132;17.984;2023-06-22T03:26:32;13.10;;;6.90;;
79377;SDS011;68959;53.132;17.984;2023-06-22T03:28:59;12.00;;;6.60;;
79377;SDS011;68959;53.132;17.984;2023-06-22T03:31:28;11.40;;;6.50;;
79377;SDS011;68959;53.132;17.984;2023-06-22T03:33:55;10.60;;;6.50;;
79377;SDS011;68959;53.132;17.984;2023-06-22T03:36:23;12.70;;;6.20;;
79377;SDS011;68959;53.132;17.984;2023-06-22T03:38:50;9.60;;;5.70;;
79377;SDS011;68959;53.132;17.984;2023-06-22T03:41:17;10.90;;;6.00;;
79377;SDS011;68959;53.132;17.984;2023-06-22T03:43:44;7.60;;;5.80;;
79377;SDS011;68959;53.132;17.984;2023-06-22T03:46:10;12.00;;;6.70;;
79377;SDS011;68959;53.132;17.984;2023-06-22T03:48:37;11.50;;;6.20;;
79377;SDS011;68959;53.132;17.984;2023-06-22T03:51:04;12.90;;;6.40;;
79377;SDS011;68959;53.132;17.984;2023-06-22T03:53:31;11.20;;;5.80;;
79377;SDS011;68959;53.132;17.984;2023-06-22T03:55:57;9.00;;;6.00;;
79377;SDS011;68959;53.132;17.984;2023-06-22T03:58:24;12.80;;;6.60;;
79377;SDS011;68959;53.132;17.984;2023-06-22T04:00:51;12.00;;;5.40;;
79377;SDS011;68959;53.132;17.984;2023-06-22T04:03:19;8.40;;;5.00;;
79377;SDS011;68959;53.132;17.984;2023-06-22T04:05:46;10.40;;;5.20;;
79377;SDS011;68959;53.132;17.984;2023-06-22T04:08:14;11.20;;;4.60;;
79377;SDS011;68959;53.132;17.984;2023-06-22T04:10:41;14.40;;;5.90;;
79377;SDS011;68959;53.132;17.984;2023-06-22T04:13:08;8.70;;;4.30;;
79377;SDS011;68959;53.132;17.984;2023-06-22T04:15:35;6.90;;;4.60;;
79377;SDS011;68959;53.132;17.984;2023-06-22T04:18:01;7.90;;;4.70;;
79377;SDS011;68959;53.132;17.984;2023-06-22T04:20:28;7.90;;;4.10;;
79377;SDS011;68959;53.132;17.984;2023-06-22T04:22:55;9.70;;;4.90;;
79377;SDS011;68959;53.132;17.984;2023-06-22T04:25:22;6.40;;;4.50;;
79377;SDS011;68959;53.132;17.984;2023-06-22T04:27:49;8.00;;;4.70;;
79377;SDS011;68959;53.132;17.984;2023-06-22T04:30:16;8.70;;;4.80;;
79377;SDS011;68959;53.132;17.984;2023-06-22T04:32:45;9.10;;;4.50;;
79377;SDS011;68959;53.132;17.984;2023-06-22T04:35:11;8.70;;;4.10;;
79377;SDS011;68959;53.132;17.984;2023-06-22T04:37:38;6.40;;;3.90;;
79377;SDS011;68959;53.132;17.984;2023-06-22T04:40:06;7.30;;;4.40;;
79377;SDS011;68959;53.132;17.984;2023-06-22T04:42:37;7.10;;;4.30;;
79377;SDS011;68959;53.132;17.984;2023-06-22T04:45:05;11.80;;;4.60;;
79377;SDS011;68959;53.132;17.984;2023-06-22T04:47:32;9.50;;;4.60;;
79377;SDS011;68959;53.132;17.984;2023-06-22T04:49:59;5.70;;;3.90;;
79377;SDS011;68959;53.132;17.984;2023-06-22T04:52:25;10.00;;;4.60;;
79377;SDS011;68959;53.132;17.984;2023-06-22T04:54:52;9.80;;;4.50;;
79377;SDS011;68959;53.132;17.984;2023-06-22T04:59:58;10.90;;;5.40;;
79377;SDS011;68959;53.132;17.984;2023-06-22T05:02:43;8.10;;;4.20;;
79377;SDS011;68959;53.132;17.984;2023-06-22T05:05:14;7.50;;;4.50;;
79377;SDS011;68959;53.132;17.984;2023-06-22T05:07:42;8.30;;;4.50;;
79377;SDS011;68959;53.132;17.984;2023-06-22T05:10:14;9.50;;;4.80;;
79377;SDS011;68959;53.132;17.984;2023-06-22T05:12:41;7.90;;;4.70;;
79377;SDS011;68959;53.132;17.984;2023-06-22T05:15:09;11.80;;;5.00;;
79377;SDS011;68959;53.132;17.984;2023-06-22T05:17:36;12.00;;;5.20;;
79377;SDS011;68959;53.132;17.984;2023-06-22T05:20:03;5.60;;;3.60;;
79377;SDS011;68959;53.132;17.984;2023-06-22T05:22:32;7.20;;;4.70;;
79377;SDS011;68959;53.132;17.984;2023-06-22T05:24:59;8.90;;;4.60;;
79377;SDS011;68959;53.132;17.984;2023-06-22T05:27:26;9.00;;;4.90;;
79377;SDS011;68959;53.132;17.984;2023-06-22T05:29:52;10.20;;;4.90;;
79377;SDS011;68959;53.132;17.984;2023-06-22T05:32:19;8.30;;;4.70;;
79377;SDS011;68959;53.132;17.984;2023-06-22T05:34:46;8.90;;;4.30;;
79377;SDS011;68959;53.132;17.984;2023-06-22T05:37:12;9.40;;;4.50;;
79377;SDS011;68959;53.132;17.984;2023-06-22T05:39:39;8.90;;;4.60;;
79377;SDS011;68959;53.132;17.984;2023-06-22T05:42:07;7.60;;;4.40;;
79377;SDS011;68959;53.132;17.984;2023-06-22T05:44:34;7.40;;;4.50;;
79377;SDS011;68959;53.132;17.984;2023-06-22T05:47:00;5.70;;;4.10;;
79377;SDS011;68959;53.132;17.984;2023-06-22T05:49:27;5.30;;;3.60;;
79377;SDS011;68959;53.132;17.984;2023-06-22T05:51:59;8.30;;;4.60;;
79377;SDS011;68959;53.132;17.984;2023-06-22T05:54:29;10.30;;;4.50;;
79377;SDS011;68959;53.132;17.984;2023-06-22T05:56:56;8.70;;;4.50;;
79377;SDS011;68959;53.132;17.984;2023-06-22T05:59:22;8.30;;;4.80;;
79377;SDS011;68959;53.132;17.984;2023-06-22T06:01:49;11.00;;;4.70;;
79377;SDS011;68959;53.132;17.984;2023-06-22T06:04:17;6.90;;;4.50;;
79377;SDS011;68959;53.132;17.984;2023-06-22T06:06:45;7.30;;;3.60;;
79377;SDS011;68959;53.132;17.984;2023-06-22T06:09:14;9.60;;;4.30;;
79377;SDS011;68959;53.132;17.984;2023-06-22T06:11:41;5.90;;;3.90;;
79377;SDS011;68959;53.132;17.984;2023-06-22T06:14:08;7.30;;;4.00;;
79377;SDS011;68959;53.132;17.984;2023-06-22T06:16:35;12.30;;;5.00;;
79377;SDS011;68959;53.132;17.984;2023-06-22T06:19:02;6.70;;;4.20;;
79377;SDS011;68959;53.132;17.984;2023-06-22T06:21:28;7.00;;;4.40;;
79377;SDS011;68959;53.132;17.984;2023-06-22T06:23:55;9.10;;;4.20;;
79377;SDS011;68959;53.132;17.984;2023-06-22T06:26:22;6.20;;;3.30;;
79377;SDS011;68959;53.132;17.984;2023-06-22T06:28:54;8.10;;;3.50;;
79377;SDS011;68959;53.132;17.984;2023-06-22T06:31:22;5.50;;;2.80;;
79377;SDS011;68959;53.132;17.984;2023-06-22T06:33:49;12.50;;;3.20;;
79377;SDS011;68959;53.132;17.984;2023-06-22T06:36:20;7.40;;;2.80;;
79377;SDS011;68959;53.132;17.984;2023-06-22T06:38:47;4.90;;;3.20;;
79377;SDS011;68959;53.132;17.984;2023-06-22T06:41:14;5.60;;;3.00;;
79377;SDS011;68959;53.132;17.984;2023-06-22T06:43:42;9.80;;;3.80;;
79377;SDS011;68959;53.132;17.984;2023-06-22T06:46:11;6.70;;;2.80;;
79377;SDS011;68959;53.132;17.984;2023-06-22T06:48:38;5.40;;;2.80;;
79377;SDS011;68959;53.132;17.984;2023-06-22T06:51:06;5.70;;;3.40;;
79377;SDS011;68959;53.132;17.984;2023-06-22T06:53:36;4.50;;;2.80;;
79377;SDS011;68959;53.132;17.984;2023-06-22T06:56:04;7.10;;;3.40;;
79377;SDS011;68959;53.132;17.984;2023-06-22T06:58:31;6.60;;;3.30;;
79377;SDS011;68959;53.132;17.984;2023-06-22T07:00:58;9.70;;;3.30;;
79377;SDS011;68959;53.132;17.984;2023-06-22T07:03:25;8.40;;;3.20;;
79377;SDS011;68959;53.132;17.984;2023-06-22T07:05:52;7.00;;;3.30;;
79377;SDS011;68959;53.132;17.984;2023-06-22T07:08:18;7.80;;;3.20;;
79377;SDS011;68959;53.132;17.984;2023-06-22T07:10:45;7.00;;;3.20;;
79377;SDS011;68959;53.132;17.984;2023-06-22T07:13:12;9.10;;;3.60;;
79377;SDS011;68959;53.132;17.984;2023-06-22T07:15:38;5.90;;;3.10;;
79377;SDS011;68959;53.132;17.984;2023-06-22T07:18:05;7.20;;;3.00;;
79377;SDS011;68959;53.132;17.984;2023-06-22T07:20:31;10.50;;;3.30;;
79377;SDS011;68959;53.132;17.984;2023-06-22T07:22:58;6.60;;;3.10;;
79377;SDS011;68959;53.132;17.984;2023-06-22T07:25:25;6.50;;;3.30;;
79377;SDS011;68959;53.132;17.984;2023-06-22T07:28:04;6.80;;;2.80;;
79377;SDS011;68959;53.132;17.984;2023-06-22T07:30:33;4.30;;;2.50;;
79377;SDS011;68959;53.132;17.984;2023-06-22T07:33:00;4.60;;;2.70;;
79377;SDS011;68959;53.132;17.984;2023-06-22T07:35:29;11.50;;;3.30;;
79377;SDS011;68959;53.132;17.984;2023-06-22T07:37:57;6.10;;;3.00;;
79377;SDS011;68959;53.132;17.984;2023-06-22T07:40:23;6.60;;;2.80;;
79377;SDS011;68959;53.132;17.984;2023-06-22T07:42:50;6.10;;;3.00;;
79377;SDS011;68959;53.132;17.984;2023-06-22T07:45:18;4.90;;;3.00;;
79377;SDS011;68959;53.132;17.984;2023-06-22T07:47:45;6.70;;;2.80;;
79377;SDS011;68959;53.132;17.984;2023-06-22T07:50:12;5.40;;;2.90;;
79377;SDS011;68959;53.132;17.984;2023-06-22T07:52:38;7.50;;;3.40;;
79377;SDS011;68959;53.132;17.984;2023-06-22T07:55:05;5.30;;;3.10;;
79377;SDS011;68959;53.132;17.984;2023-06-22T07:57:32;6.90;;;2.90;;
79377;SDS011;68959;53.132;17.984;2023-06-22T08:00:00;9.70;;;2.80;;
79377;SDS011;68959;53.132;17.984;2023-06-22T08:02:27;5.90;;;3.10;;
79377;SDS011;68959;53.132;17.984;2023-06-22T08:04:54;6.00;;;3.10;;
79377;SDS011;68959;53.132;17.984;2023-06-22T08:07:20;4.30;;;2.70;;
79377;SDS011;68959;53.132;17.984;2023-06-22T08:09:47;4.80;;;2.70;;
79377;SDS011;68959;53.132;17.984;2023-06-22T08:12:15;7.20;;;2.90;;
79377;SDS011;68959;53.132;17.984;2023-06-22T08:14:42;3.80;;;3.00;;
79377;SDS011;68959;53.132;17.984;2023-06-22T08:17:10;3.80;;;2.50;;
79377;SDS011;68959;53.132;17.984;2023-06-22T08:19:37;5.40;;;2.50;;
79377;SDS011;68959;53.132;17.984;2023-06-22T08:22:04;4.00;;;2.70;;
79377;SDS011;68959;53.132;17.984;2023-06-22T08:24:31;7.00;;;3.00;;
79377;SDS011;68959;53.132;17.984;2023-06-22T08:26:58;8.40;;;3.20;;
79377;SDS011;68959;53.132;17.984;2023-06-22T08:29:24;5.70;;;2.60;;
79377;SDS011;68959;53.132;17.984;2023-06-22T08:31:51;6.50;;;2.70;;
79377;SDS011;68959;53.132;17.984;2023-06-22T08:34:17;6.20;;;3.10;;
79377;SDS011;68959;53.132;17.984;2023-06-22T08:36:47;6.40;;;3.00;;
79377;SDS011;68959;53.132;17.984;2023-06-22T08:39:18;6.70;;;2.80;;
79377;SDS011;68959;53.132;17.984;2023-06-22T08:41:47;6.00;;;3.20;;
79377;SDS011;68959;53.132;17.984;2023-06-22T08:44:16;6.40;;;3.30;;
79377;SDS011;68959;53.132;17.984;2023-06-22T08:46:44;3.80;;;2.70;;
79377;SDS011;68959;53.132;17.984;2023-06-22T08:49:11;9.50;;;2.90;;
79377;SDS011;68959;53.132;17.984;2023-06-22T08:51:38;6.20;;;2.90;;
79377;SDS011;68959;53.132;17.984;2023-06-22T08:54:04;4.40;;;2.70;;
79377;SDS011;68959;53.132;17.984;2023-06-22T08:56:31;4.50;;;2.50;;
79377;SDS011;68959;53.132;17.984;2023-06-22T08:58:58;4.10;;;2.60;;
79377;SDS011;68959;53.132;17.984;2023-06-22T09:01:25;5.50;;;2.70;;
79377;SDS011;68959;53.132;17.984;2023-06-22T09:03:51;7.70;;;2.40;;
79377;SDS011;68959;53.132;17.984;2023-06-22T09:06:22;4.80;;;2.90;;
79377;SDS011;68959;53.132;17.984;2023-06-22T09:08:48;4.70;;;2.60;;
79377;SDS011;68959;53.132;17.984;2023-06-22T09:11:15;4.80;;;3.20;;
79377;SDS011;68959;53.132;17.984;2023-06-22T09:13:42;6.30;;;2.90;;
79377;SDS011;68959;53.132;17.984;2023-06-22T09:16:09;6.00;;;2.70;;
79377;SDS011;68959;53.132;17.984;2023-06-22T09:18:35;4.90;;;2.50;;
79377;SDS011;68959;53.132;17.984;2023-06-22T09:21:02;3.10;;;2.40;;
79377;SDS011;68959;53.132;17.984;2023-06-22T09:23:29;5.10;;;2.40;;
79377;SDS011;68959;53.132;17.984;2023-06-22T09:25:56;6.00;;;2.60;;
79377;SDS011;68959;53.132;17.984;2023-06-22T09:28:22;4.80;;;2.70;;
79377;SDS011;68959;53.132;17.984;2023-06-22T09:30:49;3.80;;;2.60;;
79377;SDS011;68959;53.132;17.984;2023-06-22T09:33:16;3.30;;;2.30;;
79377;SDS011;68959;53.132;17.984;2023-06-22T09:35:42;4.60;;;2.30;;
79377;SDS011;68959;53.132;17.984;2023-06-22T09:38:09;4.70;;;2.80;;
79377;SDS011;68959;53.132;17.984;2023-06-22T09:40:35;6.90;;;2.70;;
79377;SDS011;68959;53.132;17.984;2023-06-22T09:43:06;7.30;;;2.80;;
79377;SDS011;68959;53.132;17.984;2023-06-22T09:45:32;7.70;;;2.70;;
79377;SDS011;68959;53.132;17.984;2023-06-22T09:47:59;5.30;;;2.60;;
79377;SDS011;68959;53.132;17.984;2023-06-22T09:50:25;6.20;;;3.10;;
79377;SDS011;68959;53.132;17.984;2023-06-22T09:52:52;5.90;;;2.60;;
79377;SDS011;68959;53.132;17.984;2023-06-22T09:55:21;2.90;;;2.10;;
79377;SDS011;68959;53.132;17.984;2023-06-22T09:57:48;5.50;;;2.30;;
79377;SDS011;68959;53.132;17.984;2023-06-22T10:00:16;7.50;;;2.40;;
79377;SDS011;68959;53.132;17.984;2023-06-22T10:02:43;5.00;;;2.90;;
79377;SDS011;68959;53.132;17.984;2023-06-22T10:05:10;4.80;;;2.50;;
79377;SDS011;68959;53.132;17.984;2023-06-22T10:07:37;3.60;;;2.30;;
79377;SDS011;68959;53.132;17.984;2023-06-22T10:10:08;5.80;;;2.50;;
79377;SDS011;68959;53.132;17.984;2023-06-22T10:12:36;2.50;;;2.10;;
79377;SDS011;68959;53.132;17.984;2023-06-22T10:15:03;6.60;;;3.10;;
79377;SDS011;68959;53.132;17.984;2023-06-22T10:17:30;7.00;;;2.20;;
79377;SDS011;68959;53.132;17.984;2023-06-22T10:19:57;4.80;;;3.00;;
79377;SDS011;68959;53.132;17.984;2023-06-22T10:22:24;3.80;;;2.60;;
79377;SDS011;68959;53.132;17.984;2023-06-22T10:24:50;6.20;;;2.40;;
79377;SDS011;68959;53.132;17.984;2023-06-22T10:27:17;4.40;;;2.70;;
79377;SDS011;68959;53.132;17.984;2023-06-22T10:29:44;4.30;;;2.20;;
79377;SDS011;68959;53.132;17.984;2023-06-22T10:32:10;5.10;;;2.80;;
79377;SDS011;68959;53.132;17.984;2023-06-22T10:34:37;5.20;;;2.60;;
79377;SDS011;68959;53.132;17.984;2023-06-22T10:37:05;4.70;;;2.70;;
79377;SDS011;68959;53.132;17.984;2023-06-22T10:39:32;4.20;;;2.60;;
79377;SDS011;68959;53.132;17.984;2023-06-22T10:41:58;6.20;;;2.50;;
79377;SDS011;68959;53.132;17.984;2023-06-22T10:44:25;8.20;;;2.60;;
79377;SDS011;68959;53.132;17.984;2023-06-22T10:46:52;4.10;;;2.60;;
79377;SDS011;68959;53.132;17.984;2023-06-22T10:49:18;4.50;;;2.60;;
79377;SDS011;68959;53.132;17.984;2023-06-22T10:51:45;4.40;;;2.60;;
79377;SDS011;68959;53.132;17.984;2023-06-22T10:54:11;6.40;;;2.90;;
79377;SDS011;68959;53.132;17.984;2023-06-22T10:56:40;6.80;;;2.70;;
79377;SDS011;68959;53.132;17.984;2023-06-22T10:59:07;4.20;;;2.40;;
79377;SDS011;68959;53.132;17.984;2023-06-22T11:01:33;6.20;;;2.70;;
79377;SDS011;68959;53.132;17.984;2023-06-22T11:04:00;4.50;;;3.00;;
79377;SDS011;68959;53.132;17.984;2023-06-22T11:06:26;4.40;;;2.60;;
79377;SDS011;68959;53.132;17.984;2023-06-22T11:08:53;5.10;;;2.50;;
79377;SDS011;68959;53.132;17.984;2023-06-22T11:11:20;6.30;;;2.80;;
79377;SDS011;68959;53.132;17.984;2023-06-22T11:13:46;6.90;;;2.60;;
79377;SDS011;68959;53.132;17.984;2023-06-22T11:16:13;5.60;;;2.50;;
79377;SDS011;68959;53.132;17.984;2023-06-22T11:18:40;3.60;;;2.30;;
79377;SDS011;68959;53.132;17.984;2023-06-22T11:21:06;7.70;;;2.70;;
79377;SDS011;68959;53.132;17.984;2023-06-22T11:23:33;4.90;;;2.40;;
79377;SDS011;68959;53.132;17.984;2023-06-22T11:25:59;5.40;;;2.30;;
79377;SDS011;68959;53.132;17.984;2023-06-22T11:28:27;5.90;;;2.80;;
79377;SDS011;68959;53.132;17.984;2023-06-22T11:30:54;3.40;;;2.40;;
79377;SDS011;68959;53.132;17.984;2023-06-22T11:33:20;4.40;;;2.60;;
79377;SDS011;68959;53.132;17.984;2023-06-22T11:35:47;8.40;;;2.50;;
79377;SDS011;68959;53.132;17.984;2023-06-22T11:38:14;4.90;;;2.10;;
79377;SDS011;68959;53.132;17.984;2023-06-22T11:40:40;3.50;;;2.20;;
79377;SDS011;68959;53.132;17.984;2023-06-22T11:43:07;4.30;;;2.60;;
79377;SDS011;68959;53.132;17.984;2023-06-22T11:45:33;3.10;;;2.20;;
79377;SDS011;68959;53.132;17.984;2023-06-22T11:48:00;5.50;;;2.70;;
79377;SDS011;68959;53.132;17.984;2023-06-22T11:50:26;5.50;;;2.30;;
79377;SDS011;68959;53.132;17.984;2023-06-22T11:52:55;5.60;;;3.00;;
79377;SDS011;68959;53.132;17.984;2023-06-22T11:55:21;5.40;;;3.70;;
79377;SDS011;68959;53.132;17.984;2023-06-22T11:57:53;6.70;;;2.70;;
79377;SDS011;68959;53.132;17.984;2023-06-22T12:00:22;5.20;;;2.60;;
79377;SDS011;68959;53.132;17.984;2023-06-22T12:02:50;3.80;;;3.20;;
79377;SDS011;68959;53.132;17.984;2023-06-22T12:05:19;6.00;;;2.40;;
79377;SDS011;68959;53.132;17.984;2023-06-22T12:07:48;4.80;;;2.40;;
79377;SDS011;68959;53.132;17.984;2023-06-22T12:10:15;3.50;;;2.20;;
79377;SDS011;68959;53.132;17.984;2023-06-22T12:12:42;3.70;;;2.80;;
79377;SDS011;68959;53.132;17.984;2023-06-22T12:15:09;4.00;;;2.70;;
79377;SDS011;68959;53.132;17.984;2023-06-22T12:17:36;3.60;;;2.40;;
79377;SDS011;68959;53.132;17.984;2023-06-22T12:20:03;3.00;;;2.10;;
79377;SDS011;68959;53.132;17.984;2023-06-22T12:22:32;6.30;;;2.60;;
79377;SDS011;68959;53.132;17.984;2023-06-22T12:24:59;3.30;;;2.20;;
79377;SDS011;68959;53.132;17.984;2023-06-22T12:27:26;8.30;;;2.70;;
79377;SDS011;68959;53.132;17.984;2023-06-22T12:29:53;3.70;;;2.30;;
79377;SDS011;68959;53.132;17.984;2023-06-22T12:32:20;4.90;;;2.30;;
79377;SDS011;68959;53.132;17.984;2023-06-22T12:34:46;4.00;;;2.60;;
79377;SDS011;68959;53.132;17.984;2023-06-22T12:37:13;4.80;;;2.60;;
79377;SDS011;68959;53.132;17.984;2023-06-22T12:39:40;6.10;;;2.40;;
79377;SDS011;68959;53.132;17.984;2023-06-22T12:42:08;4.30;;;2.50;;
79377;SDS011;68959;53.132;17.984;2023-06-22T12:44:36;3.40;;;2.30;;
79377;SDS011;68959;53.132;17.984;2023-06-22T12:47:05;5.80;;;2.60;;
79377;SDS011;68959;53.132;17.984;2023-06-22T12:49:32;3.00;;;2.30;;
79377;SDS011;68959;53.132;17.984;2023-06-22T12:51:59;4.00;;;2.30;;
79377;SDS011;68959;53.132;17.984;2023-06-22T12:54:25;3.80;;;2.50;;
79377;SDS011;68959;53.132;17.984;2023-06-22T12:56:52;4.80;;;2.30;;
79377;SDS011;68959;53.132;17.984;2023-06-22T12:59:19;6.50;;;2.60;;
79377;SDS011;68959;53.132;17.984;2023-06-22T13:01:48;5.20;;;2.60;;
79377;SDS011;68959;53.132;17.984;2023-06-22T13:04:14;4.10;;;2.40;;
79377;SDS011;68959;53.132;17.984;2023-06-22T13:06:41;4.70;;;2.40;;
79377;SDS011;68959;53.132;17.984;2023-06-22T13:09:09;5.20;;;2.70;;
79377;SDS011;68959;53.132;17.984;2023-06-22T13:11:37;5.00;;;2.60;;
79377;SDS011;68959;53.132;17.984;2023-06-22T13:14:03;5.20;;;2.60;;
79377;SDS011;68959;53.132;17.984;2023-06-22T13:16:30;3.20;;;2.40;;
79377;SDS011;68959;53.132;17.984;2023-06-22T13:18:57;3.30;;;2.40;;
79377;SDS011;68959;53.132;17.984;2023-06-22T13:21:24;5.60;;;2.50;;
79377;SDS011;68959;53.132;17.984;2023-06-22T13:23:50;3.50;;;2.70;;
79377;SDS011;68959;53.132;17.984;2023-06-22T13:26:17;3.80;;;2.50;;
79377;SDS011;68959;53.132;17.984;2023-06-22T13:28:44;4.60;;;2.60;;
79377;SDS011;68959;53.132;17.984;2023-06-22T13:31:10;3.70;;;2.90;;
79377;SDS011;68959;53.132;17.984;2023-06-22T13:33:37;6.30;;;2.70;;
79377;SDS011;68959;53.132;17.984;2023-06-22T13:36:04;4.50;;;2.30;;
79377;SDS011;68959;53.132;17.984;2023-06-22T13:38:32;4.80;;;2.60;;
79377;SDS011;68959;53.132;17.984;2023-06-22T13:40:59;5.70;;;2.50;;
79377;SDS011;68959;53.132;17.984;2023-06-22T13:43:26;4.40;;;3.00;;
79377;SDS011;68959;53.132;17.984;2023-06-22T13:45:53;6.40;;;2.80;;
79377;SDS011;68959;53.132;17.984;2023-06-22T13:48:20;6.10;;;2.80;;
79377;SDS011;68959;53.132;17.984;2023-06-22T13:50:47;3.50;;;2.60;;
79377;SDS011;68959;53.132;17.984;2023-06-22T13:53:14;6.50;;;2.70;;
79377;SDS011;68959;53.132;17.984;2023-06-22T13:55:40;5.40;;;3.00;;
79377;SDS011;68959;53.132;17.984;2023-06-22T13:58:07;6.00;;;2.80;;
79377;SDS011;68959;53.132;17.984;2023-06-22T14:00:33;4.40;;;2.90;;
79377;SDS011;68959;53.132;17.984;2023-06-22T14:03:00;4.00;;;2.60;;
79377;SDS011;68959;53.132;17.984;2023-06-22T14:05:27;6.20;;;2.80;;
79377;SDS011;68959;53.132;17.984;2023-06-22T14:07:53;5.00;;;2.60;;
79377;SDS011;68959;53.132;17.984;2023-06-22T14:10:20;3.80;;;2.70;;
79377;SDS011;68959;53.132;17.984;2023-06-22T14:12:46;4.60;;;2.90;;
79377;SDS011;68959;53.132;17.984;2023-06-22T14:15:13;4.50;;;2.70;;
79377;SDS011;68959;53.132;17.984;2023-06-22T14:17:40;4.80;;;2.50;;
79377;SDS011;68959;53.132;17.984;2023-06-22T14:20:06;4.80;;;2.90;;
79377;SDS011;68959;53.132;17.984;2023-06-22T14:22:34;4.00;;;2.60;;
79377;SDS011;68959;53.132;17.984;2023-06-22T14:25:02;5.50;;;2.90;;
79377;SDS011;68959;53.132;17.984;2023-06-22T14:27:29;5.50;;;2.60;;
79377;SDS011;68959;53.132;17.984;2023-06-22T14:29:56;4.60;;;2.90;;
79377;SDS011;68959;53.132;17.984;2023-06-22T14:32:22;3.90;;;2.80;;
79377;SDS011;68959;53.132;17.984;2023-06-22T14:34:49;5.10;;;2.60;;
79377;SDS011;68959;53.132;17.984;2023-06-22T14:37:16;6.50;;;3.00;;
79377;SDS011;68959;53.132;17.984;2023-06-22T14:39:43;3.50;;;2.60;;
79377;SDS011;68959;53.132;17.984;2023-06-22T14:42:10;6.50;;;3.10;;
79377;SDS011;68959;53.132;17.984;2023-06-22T14:44:37;4.20;;;2.70;;
79377;SDS011;68959;53.132;17.984;2023-06-22T14:47:04;5.50;;;2.70;;